sensor_id;sensor_type;location;lat;lon;timestamp;temperature;humidity
17170;DHT22;8700;48.222;16.342;2023-03-01T00:08:30;3.20;99.90
17170;DHT22;8700;48.222;16.342;2023-03-01T00:11:53;3.30;99.90
17170;DHT22;8700;48.222;16.342;2023-03-01T00:15:14;3.40;99.90
17170;DHT22;8700;48.222;16.342;2023-03-01T00:18:36;3.50;99.90
17170;DHT22;8700;48.222;16.342;2023-03-01T00:21:57;3.40;99.90
17170;DHT22;8700;48.222;16.342;2023-03-01T00:25:20;3.40;99.90
17170;DHT22;8700;48.222;16.342;2023-03-01T00:28:42;3.50;99.90
17170;DHT22;8700;48.222;16.342;2023-03-01T00:32:03;3.30;99.90
17170;DHT22;8700;48.222;16.342;2023-03-01T00:35:25;3.30;99.90
17170;DHT22;8700;48.222;16.342;2023-03-01T00:38:46;3.30;99.90
17170;DHT22;8700;48.222;16.342;2023-03-01T00:42:09;3.30;99.90
17170;DHT22;8700;48.222;16.342;2023-03-01T00:45:30;3.40;99.90
17170;DHT22;8700;48.222;16.342;2023-03-01T00:48:51;3.30;99.90
17170;DHT22;8700;48.222;16.342;2023-03-01T00:52:13;3.30;99.90
17170;DHT22;8700;48.222;16.342;2023-03-01T00:55:34;3.40;99.90
17170;DHT22;8700;48.222;16.342;2023-03-01T00:58:58;3.40;99.90
17170;DHT22;8700;48.222;16.342;2023-03-01T01:02:20;3.40;99.90
17170;DHT22;8700;48.222;16.342;2023-03-01T01:05:41;3.30;99.90
17170;DHT22;8700;48.222;16.342;2023-03-01T01:09:04;3.30;99.90
17170;DHT22;8700;48.222;16.342;2023-03-01T01:12:26;3.30;99.90
17170;DHT22;8700;48.222;16.342;2023-03-01T01:15:48;3.30;99.90
17170;DHT22;8700;48.222;16.342;2023-03-01T01:19:10;3.20;99.90
17170;DHT22;8700;48.222;16.342;2023-03-01T01:22:31;3.20;99.90
17170;DHT22;8700;48.222;16.342;2023-03-01T01:25:52;3.10;99.90
17170;DHT22;8700;48.222;16.342;2023-03-01T01:29:14;3.20;99.90
17170;DHT22;8700;48.222;16.342;2023-03-01T01:32:37;3.20;99.90
17170;DHT22;8700;48.222;16.342;2023-03-01T01:35:58;3.20;99.90
17170;DHT22;8700;48.222;16.342;2023-03-01T01:39:19;3.30;99.90
17170;DHT22;8700;48.222;16.342;2023-03-01T01:42:40;3.20;99.90
17170;DHT22;8700;48.222;16.342;2023-03-01T01:46:04;3.20;99.90
17170;DHT22;8700;48.222;16.342;2023-03-01T01:49:32;3.20;99.90
17170;DHT22;8700;48.222;16.342;2023-03-01T01:52:54;3.20;99.90
17170;DHT22;8700;48.222;16.342;2023-03-01T01:56:16;3.30;99.90
17170;DHT22;8700;48.222;16.342;2023-03-01T01:59:39;3.30;99.90
17170;DHT22;8700;48.222;16.342;2023-03-01T02:03:06;3.20;99.90
17170;DHT22;8700;48.222;16.342;2023-03-01T02:06:32;3.30;99.90
17170;DHT22;8700;48.222;16.342;2023-03-01T02:09:54;3.40;99.90
17170;DHT22;8700;48.222;16.342;2023-03-01T02:13:16;3.40;99.90
17170;DHT22;8700;48.222;16.342;2023-03-01T02:16:37;3.30;99.90
17170;DHT22;8700;48.222;16.342;2023-03-01T02:20:07;3.30;99.90
17170;DHT22;8700;48.222;16.342;2023-03-01T02:23:33;3.30;99.90
17170;DHT22;8700;48.222;16.342;2023-03-01T02:26:56;3.30;99.90
17170;DHT22;8700;48.222;16.342;2023-03-01T02:30:21;3.30;99.90
17170;DHT22;8700;48.222;16.342;2023-03-01T02:33:43;3.30;99.90
17170;DHT22;8700;48.222;16.342;2023-03-01T02:37:10;3.20;99.90
17170;DHT22;8700;48.222;16.342;2023-03-01T02:40:36;3.20;99.90
17170;DHT22;8700;48.222;16.342;2023-03-01T02:43:58;3.10;99.90
17170;DHT22;8700;48.222;16.342;2023-03-01T02:47:21;3.10;99.90
17170;DHT22;8700;48.222;16.342;2023-03-01T02:50:55;3.10;99.90
17170;DHT22;8700;48.222;16.342;2023-03-01T02:54:25;3.10;99.90
17170;DHT22;8700;48.222;16.342;2023-03-01T02:57:49;3.10;99.90
17170;DHT22;8700;48.222;16.342;2023-03-01T03:01:11;3.20;99.90
17170;DHT22;8700;48.222;16.342;2023-03-01T03:04:34;3.10;99.90
17170;DHT22;8700;48.222;16.342;2023-03-01T03:07:56;3.10;99.90
17170;DHT22;8700;48.222;16.342;2023-03-01T03:11:18;3.10;99.90
17170;DHT22;8700;48.222;16.342;2023-03-01T03:14:40;3.00;99.90
17170;DHT22;8700;48.222;16.342;2023-03-01T03:18:03;3.00;99.90
17170;DHT22;8700;48.222;16.342;2023-03-01T03:21:26;3.00;99.90
17170;DHT22;8700;48.222;16.342;2023-03-01T03:24:47;2.90;99.90
17170;DHT22;8700;48.222;16.342;2023-03-01T03:28:08;2.90;99.90
17170;DHT22;8700;48.222;16.342;2023-03-01T03:31:30;2.90;99.90
17170;DHT22;8700;48.222;16.342;2023-03-01T03:34:51;3.00;99.90
17170;DHT22;8700;48.222;16.342;2023-03-01T03:38:20;3.00;99.90
17170;DHT22;8700;48.222;16.342;2023-03-01T03:41:44;3.10;99.90
17170;DHT22;8700;48.222;16.342;2023-03-01T03:45:07;3.20;99.90
17170;DHT22;8700;48.222;16.342;2023-03-01T03:48:28;3.20;99.90
17170;DHT22;8700;48.222;16.342;2023-03-01T03:51:49;3.20;99.90
17170;DHT22;8700;48.222;16.342;2023-03-01T03:55:12;3.10;99.90
17170;DHT22;8700;48.222;16.342;2023-03-01T03:58:34;3.00;99.90
17170;DHT22;8700;48.222;16.342;2023-03-01T04:01:55;3.00;99.90
17170;DHT22;8700;48.222;16.342;2023-03-01T04:05:18;3.00;99.90
17170;DHT22;8700;48.222;16.342;2023-03-01T04:08:39;3.00;99.90
17170;DHT22;8700;48.222;16.342;2023-03-01T04:12:02;3.10;99.90
17170;DHT22;8700;48.222;16.342;2023-03-01T04:15:25;3.20;99.90
17170;DHT22;8700;48.222;16.342;2023-03-01T04:18:46;3.20;99.90
17170;DHT22;8700;48.222;16.342;2023-03-01T04:22:07;3.30;99.90
17170;DHT22;8700;48.222;16.342;2023-03-01T04:25:33;3.30;99.90
17170;DHT22;8700;48.222;16.342;2023-03-01T04:28:55;3.20;99.90
17170;DHT22;8700;48.222;16.342;2023-03-01T04:32:16;3.30;99.90
17170;DHT22;8700;48.222;16.342;2023-03-01T04:35:38;3.30;99.90
17170;DHT22;8700;48.222;16.342;2023-03-01T04:39:00;3.30;99.90
17170;DHT22;8700;48.222;16.342;2023-03-01T04:42:32;3.30;99.90
17170;DHT22;8700;48.222;16.342;2023-03-01T04:45:54;3.30;99.90
17170;DHT22;8700;48.222;16.342;2023-03-01T04:49:22;3.20;99.90
17170;DHT22;8700;48.222;16.342;2023-03-01T04:52:44;3.30;99.90
17170;DHT22;8700;48.222;16.342;2023-03-01T04:56:06;3.30;99.90
17170;DHT22;8700;48.222;16.342;2023-03-01T04:59:28;3.30;99.90
17170;DHT22;8700;48.222;16.342;2023-03-01T05:02:53;3.30;99.90
17170;DHT22;8700;48.222;16.342;2023-03-01T05:06:15;3.30;99.90
17170;DHT22;8700;48.222;16.342;2023-03-01T05:09:37;3.30;99.90
17170;DHT22;8700;48.222;16.342;2023-03-01T05:12:59;3.20;99.90
17170;DHT22;8700;48.222;16.342;2023-03-01T05:16:21;3.20;99.90
17170;DHT22;8700;48.222;16.342;2023-03-01T05:19:43;3.20;99.90
17170;DHT22;8700;48.222;16.342;2023-03-01T05:23:07;3.20;99.90
17170;DHT22;8700;48.222;16.342;2023-03-01T05:26:29;3.20;99.90
17170;DHT22;8700;48.222;16.342;2023-03-01T05:29:50;3.30;99.90
17170;DHT22;8700;48.222;16.342;2023-03-01T05:33:12;3.20;99.90
17170;DHT22;8700;48.222;16.342;2023-03-01T05:36:35;3.30;99.90
17170;DHT22;8700;48.222;16.342;2023-03-01T05:39:58;3.30;99.90
17170;DHT22;8700;48.222;16.342;2023-03-01T05:43:19;3.30;99.90
17170;DHT22;8700;48.222;16.342;2023-03-01T05:46:40;3.20;99.90
17170;DHT22;8700;48.222;16.342;2023-03-01T05:50:01;3.30;99.90
17170;DHT22;8700;48.222;16.342;2023-03-01T05:53:24;3.30;99.90
17170;DHT22;8700;48.222;16.342;2023-03-01T05:56:46;3.40;99.90
17170;DHT22;8700;48.222;16.342;2023-03-01T06:00:09;3.30;99.90
17170;DHT22;8700;48.222;16.342;2023-03-01T06:03:31;3.40;99.90
17170;DHT22;8700;48.222;16.342;2023-03-01T06:06:53;3.50;99.90
17170;DHT22;8700;48.222;16.342;2023-03-01T06:10:16;3.60;99.90
17170;DHT22;8700;48.222;16.342;2023-03-01T06:13:37;3.60;99.90
17170;DHT22;8700;48.222;16.342;2023-03-01T06:16:58;3.70;99.90
17170;DHT22;8700;48.222;16.342;2023-03-01T06:20:22;3.80;99.90
17170;DHT22;8700;48.222;16.342;2023-03-01T06:23:44;3.80;99.90
17170;DHT22;8700;48.222;16.342;2023-03-01T06:27:07;3.90;99.90
17170;DHT22;8700;48.222;16.342;2023-03-01T06:30:28;4.00;99.90
17170;DHT22;8700;48.222;16.342;2023-03-01T06:33:49;4.00;99.90
17170;DHT22;8700;48.222;16.342;2023-03-01T06:37:11;3.90;99.90
17170;DHT22;8700;48.222;16.342;2023-03-01T06:40:33;3.90;99.90
17170;DHT22;8700;48.222;16.342;2023-03-01T06:43:56;4.00;99.90
17170;DHT22;8700;48.222;16.342;2023-03-01T06:47:17;4.00;99.90
17170;DHT22;8700;48.222;16.342;2023-03-01T06:50:39;3.90;99.90
17170;DHT22;8700;48.222;16.342;2023-03-01T06:54:00;4.00;99.90
17170;DHT22;8700;48.222;16.342;2023-03-01T06:57:21;4.00;99.90
17170;DHT22;8700;48.222;16.342;2023-03-01T07:00:44;3.90;99.90
17170;DHT22;8700;48.222;16.342;2023-03-01T07:04:06;3.80;99.90
17170;DHT22;8700;48.222;16.342;2023-03-01T07:07:27;3.90;99.90
17170;DHT22;8700;48.222;16.342;2023-03-01T07:10:54;3.90;99.90
17170;DHT22;8700;48.222;16.342;2023-03-01T07:14:15;4.00;99.90
17170;DHT22;8700;48.222;16.342;2023-03-01T07:17:38;4.00;99.90
17170;DHT22;8700;48.222;16.342;2023-03-01T07:21:04;4.00;99.90
17170;DHT22;8700;48.222;16.342;2023-03-01T07:24:25;3.90;99.90
17170;DHT22;8700;48.222;16.342;2023-03-01T07:27:49;3.90;99.90
17170;DHT22;8700;48.222;16.342;2023-03-01T07:31:11;4.00;99.90
17170;DHT22;8700;48.222;16.342;2023-03-01T07:34:33;4.10;99.90
17170;DHT22;8700;48.222;16.342;2023-03-01T07:37:55;4.30;99.90
17170;DHT22;8700;48.222;16.342;2023-03-01T07:41:17;4.50;99.90
17170;DHT22;8700;48.222;16.342;2023-03-01T07:44:38;4.50;99.90
17170;DHT22;8700;48.222;16.342;2023-03-01T07:47:59;4.60;99.90
17170;DHT22;8700;48.222;16.342;2023-03-01T07:51:22;4.80;99.90
17170;DHT22;8700;48.222;16.342;2023-03-01T07:54:43;4.70;99.90
17170;DHT22;8700;48.222;16.342;2023-03-01T07:58:05;4.90;99.90
17170;DHT22;8700;48.222;16.342;2023-03-01T08:01:26;5.20;99.90
17170;DHT22;8700;48.222;16.342;2023-03-01T08:04:49;5.10;99.90
17170;DHT22;8700;48.222;16.342;2023-03-01T08:08:12;5.40;99.90
17170;DHT22;8700;48.222;16.342;2023-03-01T08:11:33;5.40;99.90
17170;DHT22;8700;48.222;16.342;2023-03-01T08:14:54;5.40;99.90
17170;DHT22;8700;48.222;16.342;2023-03-01T08:18:21;5.10;99.90
17170;DHT22;8700;48.222;16.342;2023-03-01T08:21:42;5.40;99.90
17170;DHT22;8700;48.222;16.342;2023-03-01T08:25:05;5.60;99.90
17170;DHT22;8700;48.222;16.342;2023-03-01T08:28:27;5.60;99.90
17170;DHT22;8700;48.222;16.342;2023-03-01T08:31:48;5.40;99.90
17170;DHT22;8700;48.222;16.342;2023-03-01T08:35:09;5.60;99.90
17170;DHT22;8700;48.222;16.342;2023-03-01T08:38:30;5.80;99.90
17170;DHT22;8700;48.222;16.342;2023-03-01T08:41:53;5.70;99.90
17170;DHT22;8700;48.222;16.342;2023-03-01T08:45:15;5.90;99.90
17170;DHT22;8700;48.222;16.342;2023-03-01T08:48:38;6.30;99.90
17170;DHT22;8700;48.222;16.342;2023-03-01T08:51:59;6.40;99.90
17170;DHT22;8700;48.222;16.342;2023-03-01T08:55:20;6.50;99.90
17170;DHT22;8700;48.222;16.342;2023-03-01T08:58:45;6.90;99.90
17170;DHT22;8700;48.222;16.342;2023-03-01T09:02:11;6.80;99.90
17170;DHT22;8700;48.222;16.342;2023-03-01T09:05:33;7.00;99.90
17170;DHT22;8700;48.222;16.342;2023-03-01T09:08:56;7.40;99.90
17170;DHT22;8700;48.222;16.342;2023-03-01T09:12:18;7.00;99.90
17170;DHT22;8700;48.222;16.342;2023-03-01T09:15:40;7.00;99.90
17170;DHT22;8700;48.222;16.342;2023-03-01T09:19:02;7.60;99.90
17170;DHT22;8700;48.222;16.342;2023-03-01T09:22:24;7.50;99.90
17170;DHT22;8700;48.222;16.342;2023-03-01T09:25:45;8.20;99.90
17170;DHT22;8700;48.222;16.342;2023-03-01T09:29:06;8.40;99.90
17170;DHT22;8700;48.222;16.342;2023-03-01T09:32:31;8.30;99.90
17170;DHT22;8700;48.222;16.342;2023-03-01T09:35:56;7.70;99.90
17170;DHT22;8700;48.222;16.342;2023-03-01T09:39:17;7.90;99.90
17170;DHT22;8700;48.222;16.342;2023-03-01T09:42:46;8.10;99.90
17170;DHT22;8700;48.222;16.342;2023-03-01T09:46:11;8.10;99.90
17170;DHT22;8700;48.222;16.342;2023-03-01T09:49:43;8.30;99.70
17170;DHT22;8700;48.222;16.342;2023-03-01T09:53:12;8.30;99.60
17170;DHT22;8700;48.222;16.342;2023-03-01T09:56:37;8.20;99.90
17170;DHT22;8700;48.222;16.342;2023-03-01T10:00:16;8.70;98.40
17170;DHT22;8700;48.222;16.342;2023-03-01T10:03:43;8.50;99.10
17170;DHT22;8700;48.222;16.342;2023-03-01T10:07:17;8.40;99.70
17170;DHT22;8700;48.222;16.342;2023-03-01T10:10:43;8.60;98.60
17170;DHT22;8700;48.222;16.342;2023-03-01T10:14:15;8.90;98.10
17170;DHT22;8700;48.222;16.342;2023-03-01T10:17:43;8.40;98.40
17170;DHT22;8700;48.222;16.342;2023-03-01T10:21:14;8.50;98.70
17170;DHT22;8700;48.222;16.342;2023-03-01T10:24:38;8.90;97.90
17170;DHT22;8700;48.222;16.342;2023-03-01T10:28:03;9.10;97.50
17170;DHT22;8700;48.222;16.342;2023-03-01T10:31:37;9.00;97.90
17170;DHT22;8700;48.222;16.342;2023-03-01T10:34:59;9.30;97.10
17170;DHT22;8700;48.222;16.342;2023-03-01T10:38:20;9.20;97.10
17170;DHT22;8700;48.222;16.342;2023-03-01T10:41:54;9.60;95.70
17170;DHT22;8700;48.222;16.342;2023-03-01T10:45:27;10.80;95.90
17170;DHT22;8700;48.222;16.342;2023-03-01T10:49:07;11.60;91.10
17170;DHT22;8700;48.222;16.342;2023-03-01T10:52:31;9.50;92.70
17170;DHT22;8700;48.222;16.342;2023-03-01T10:55:58;9.30;94.00
17170;DHT22;8700;48.222;16.342;2023-03-01T10:59:26;8.90;95.00
17170;DHT22;8700;48.222;16.342;2023-03-01T11:02:50;9.50;94.80
17170;DHT22;8700;48.222;16.342;2023-03-01T11:06:22;9.50;93.80
17170;DHT22;8700;48.222;16.342;2023-03-01T11:09:44;10.20;92.70
17170;DHT22;8700;48.222;16.342;2023-03-01T11:13:07;9.90;92.70
17170;DHT22;8700;48.222;16.342;2023-03-01T11:16:32;10.20;93.70
17170;DHT22;8700;48.222;16.342;2023-03-01T11:20:01;11.20;92.40
17170;DHT22;8700;48.222;16.342;2023-03-01T11:23:25;11.80;90.80
17170;DHT22;8700;48.222;16.342;2023-03-01T11:26:52;11.70;90.40
17170;DHT22;8700;48.222;16.342;2023-03-01T11:30:19;11.60;90.30
17170;DHT22;8700;48.222;16.342;2023-03-01T11:33:46;11.40;90.40
17170;DHT22;8700;48.222;16.342;2023-03-01T11:37:16;11.00;90.90
17170;DHT22;8700;48.222;16.342;2023-03-01T11:40:46;10.70;90.90
17170;DHT22;8700;48.222;16.342;2023-03-01T11:44:16;10.60;91.20
17170;DHT22;8700;48.222;16.342;2023-03-01T11:48:07;10.60;91.20
17170;DHT22;8700;48.222;16.342;2023-03-01T11:51:43;10.50;91.10
17170;DHT22;8700;48.222;16.342;2023-03-01T11:55:20;10.50;91.50
17170;DHT22;8700;48.222;16.342;2023-03-01T12:03:16;10.40;92.20
17170;DHT22;8700;48.222;16.342;2023-03-01T12:06:52;10.70;91.10
17170;DHT22;8700;48.222;16.342;2023-03-01T12:10:25;11.10;91.00
17170;DHT22;8700;48.222;16.342;2023-03-01T12:13:57;10.80;91.10
17170;DHT22;8700;48.222;16.342;2023-03-01T12:21:17;10.60;91.10
17170;DHT22;8700;48.222;16.342;2023-03-01T12:29:02;10.40;92.30
17170;DHT22;8700;48.222;16.342;2023-03-01T12:32:41;10.30;93.00
17170;DHT22;8700;48.222;16.342;2023-03-01T12:36:20;9.90;93.40
17170;DHT22;8700;48.222;16.342;2023-03-01T12:39:55;10.00;94.00
17170;DHT22;8700;48.222;16.342;2023-03-01T12:43:28;10.70;93.00
17170;DHT22;8700;48.222;16.342;2023-03-01T12:47:05;11.00;92.30
17170;DHT22;8700;48.222;16.342;2023-03-01T12:50:37;10.90;92.90
17170;DHT22;8700;48.222;16.342;2023-03-01T12:54:04;10.00;94.50
17170;DHT22;8700;48.222;16.342;2023-03-01T12:57:31;10.20;95.00
17170;DHT22;8700;48.222;16.342;2023-03-01T13:01:08;10.70;94.70
17170;DHT22;8700;48.222;16.342;2023-03-01T13:04:45;10.60;94.80
17170;DHT22;8700;48.222;16.342;2023-03-01T13:08:18;10.00;95.30
17170;DHT22;8700;48.222;16.342;2023-03-01T13:11:41;9.80;95.90
17170;DHT22;8700;48.222;16.342;2023-03-01T13:15:28;9.70;96.10
17170;DHT22;8700;48.222;16.342;2023-03-01T13:19:06;10.00;96.20
17170;DHT22;8700;48.222;16.342;2023-03-01T13:22:32;10.60;95.40
17170;DHT22;8700;48.222;16.342;2023-03-01T13:26:03;11.10;94.20
17170;DHT22;8700;48.222;16.342;2023-03-01T13:29:26;11.20;93.80
17170;DHT22;8700;48.222;16.342;2023-03-01T13:32:49;11.30;93.90
17170;DHT22;8700;48.222;16.342;2023-03-01T13:36:11;11.60;94.00
17170;DHT22;8700;48.222;16.342;2023-03-01T13:39:54;11.80;93.40
17170;DHT22;8700;48.222;16.342;2023-03-01T13:43:28;11.90;92.70
17170;DHT22;8700;48.222;16.342;2023-03-01T13:46:50;12.00;92.50
17170;DHT22;8700;48.222;16.342;2023-03-01T13:50:21;11.50;92.60
17170;DHT22;8700;48.222;16.342;2023-03-01T13:53:46;11.20;93.40
17170;DHT22;8700;48.222;16.342;2023-03-01T13:57:21;11.00;93.90
17170;DHT22;8700;48.222;16.342;2023-03-01T14:00:44;10.90;94.40
17170;DHT22;8700;48.222;16.342;2023-03-01T14:04:19;10.80;94.50
17170;DHT22;8700;48.222;16.342;2023-03-01T14:07:42;10.60;94.80
17170;DHT22;8700;48.222;16.342;2023-03-01T14:11:24;10.50;95.30
17170;DHT22;8700;48.222;16.342;2023-03-01T14:14:53;10.60;95.70
17170;DHT22;8700;48.222;16.342;2023-03-01T14:18:20;10.70;96.00
17170;DHT22;8700;48.222;16.342;2023-03-01T14:21:44;10.80;95.90
17170;DHT22;8700;48.222;16.342;2023-03-01T14:25:19;10.70;96.10
17170;DHT22;8700;48.222;16.342;2023-03-01T14:28:42;10.60;96.60
17170;DHT22;8700;48.222;16.342;2023-03-01T14:32:12;10.70;96.60
17170;DHT22;8700;48.222;16.342;2023-03-01T14:35:35;10.70;96.80
17170;DHT22;8700;48.222;16.342;2023-03-01T14:38:57;10.70;97.10
17170;DHT22;8700;48.222;16.342;2023-03-01T14:42:28;10.80;96.90
17170;DHT22;8700;48.222;16.342;2023-03-01T14:45:51;10.70;96.80
17170;DHT22;8700;48.222;16.342;2023-03-01T14:49:15;10.60;96.90
17170;DHT22;8700;48.222;16.342;2023-03-01T14:52:39;10.40;97.40
17170;DHT22;8700;48.222;16.342;2023-03-01T14:56:02;10.20;97.80
17170;DHT22;8700;48.222;16.342;2023-03-01T14:59:26;10.10;98.20
17170;DHT22;8700;48.222;16.342;2023-03-01T15:02:48;10.00;98.70
17170;DHT22;8700;48.222;16.342;2023-03-01T15:06:11;10.00;99.10
17170;DHT22;8700;48.222;16.342;2023-03-01T15:09:36;9.90;99.30
17170;DHT22;8700;48.222;16.342;2023-03-01T15:13:10;9.70;99.70
17170;DHT22;8700;48.222;16.342;2023-03-01T15:16:34;9.70;99.90
17170;DHT22;8700;48.222;16.342;2023-03-01T15:20:02;9.60;99.90
17170;DHT22;8700;48.222;16.342;2023-03-01T15:23:25;9.60;99.90
17170;DHT22;8700;48.222;16.342;2023-03-01T15:26:51;9.60;99.90
17170;DHT22;8700;48.222;16.342;2023-03-01T15:30:20;9.60;99.90
17170;DHT22;8700;48.222;16.342;2023-03-01T15:33:43;9.60;99.90
17170;DHT22;8700;48.222;16.342;2023-03-01T15:37:36;9.70;99.90
17170;DHT22;8700;48.222;16.342;2023-03-01T15:41:00;9.60;99.90
17170;DHT22;8700;48.222;16.342;2023-03-01T15:44:26;9.50;99.90
17170;DHT22;8700;48.222;16.342;2023-03-01T15:47:49;9.40;99.90
17170;DHT22;8700;48.222;16.342;2023-03-01T15:51:13;9.40;99.90
17170;DHT22;8700;48.222;16.342;2023-03-01T15:54:35;9.40;99.90
17170;DHT22;8700;48.222;16.342;2023-03-01T15:57:59;9.40;99.90
17170;DHT22;8700;48.222;16.342;2023-03-01T16:01:21;9.30;99.90
17170;DHT22;8700;48.222;16.342;2023-03-01T16:04:43;9.40;99.90
17170;DHT22;8700;48.222;16.342;2023-03-01T16:08:06;9.40;99.90
17170;DHT22;8700;48.222;16.342;2023-03-01T16:11:28;9.40;99.90
17170;DHT22;8700;48.222;16.342;2023-03-01T16:14:49;9.30;99.90
17170;DHT22;8700;48.222;16.342;2023-03-01T16:18:13;9.30;99.90
17170;DHT22;8700;48.222;16.342;2023-03-01T16:21:35;9.30;99.90
17170;DHT22;8700;48.222;16.342;2023-03-01T16:24:57;9.30;99.90
17170;DHT22;8700;48.222;16.342;2023-03-01T16:28:18;9.30;99.90
17170;DHT22;8700;48.222;16.342;2023-03-01T16:31:40;9.20;99.90
17170;DHT22;8700;48.222;16.342;2023-03-01T16:35:01;9.20;99.90
17170;DHT22;8700;48.222;16.342;2023-03-01T16:38:23;9.20;99.90
17170;DHT22;8700;48.222;16.342;2023-03-01T16:41:46;9.20;99.90
17170;DHT22;8700;48.222;16.342;2023-03-01T16:45:09;9.20;99.90
17170;DHT22;8700;48.222;16.342;2023-03-01T16:48:30;9.30;99.90
17170;DHT22;8700;48.222;16.342;2023-03-01T16:51:53;9.30;99.90
17170;DHT22;8700;48.222;16.342;2023-03-01T16:55:14;9.20;99.90
17170;DHT22;8700;48.222;16.342;2023-03-01T16:58:38;9.30;99.90
17170;DHT22;8700;48.222;16.342;2023-03-01T17:02:00;9.30;99.90
17170;DHT22;8700;48.222;16.342;2023-03-01T17:05:21;9.30;99.90
17170;DHT22;8700;48.222;16.342;2023-03-01T17:08:44;9.30;99.90
17170;DHT22;8700;48.222;16.342;2023-03-01T17:12:05;9.30;99.90
17170;DHT22;8700;48.222;16.342;2023-03-01T17:15:28;9.30;99.90
17170;DHT22;8700;48.222;16.342;2023-03-01T17:18:49;9.40;99.90
17170;DHT22;8700;48.222;16.342;2023-03-01T17:22:11;9.30;99.90
17170;DHT22;8700;48.222;16.342;2023-03-01T17:25:33;9.30;99.90
17170;DHT22;8700;48.222;16.342;2023-03-01T17:28:55;9.30;99.90
17170;DHT22;8700;48.222;16.342;2023-03-01T17:32:19;9.30;99.90
17170;DHT22;8700;48.222;16.342;2023-03-01T17:35:40;9.20;99.90
17170;DHT22;8700;48.222;16.342;2023-03-01T17:39:01;9.20;99.90
17170;DHT22;8700;48.222;16.342;2023-03-01T17:42:23;9.10;99.90
17170;DHT22;8700;48.222;16.342;2023-03-01T17:45:44;9.10;99.90
17170;DHT22;8700;48.222;16.342;2023-03-01T17:49:11;9.10;99.90
17170;DHT22;8700;48.222;16.342;2023-03-01T17:52:32;9.10;99.90
17170;DHT22;8700;48.222;16.342;2023-03-01T17:55:59;9.20;99.90
17170;DHT22;8700;48.222;16.342;2023-03-01T17:59:20;9.10;99.90
17170;DHT22;8700;48.222;16.342;2023-03-01T18:02:42;9.10;99.90
17170;DHT22;8700;48.222;16.342;2023-03-01T18:06:11;9.00;99.90
17170;DHT22;8700;48.222;16.342;2023-03-01T18:09:32;9.00;99.90
17170;DHT22;8700;48.222;16.342;2023-03-01T18:12:53;8.90;99.90
17170;DHT22;8700;48.222;16.342;2023-03-01T18:16:16;8.90;99.90
17170;DHT22;8700;48.222;16.342;2023-03-01T18:19:38;8.90;99.90
17170;DHT22;8700;48.222;16.342;2023-03-01T18:23:02;8.80;99.90
17170;DHT22;8700;48.222;16.342;2023-03-01T18:26:27;8.70;99.90
17170;DHT22;8700;48.222;16.342;2023-03-01T18:29:50;8.60;99.90
17170;DHT22;8700;48.222;16.342;2023-03-01T18:33:12;8.50;99.90
17170;DHT22;8700;48.222;16.342;2023-03-01T18:36:34;8.40;99.90
17170;DHT22;8700;48.222;16.342;2023-03-01T18:39:57;8.40;99.90
17170;DHT22;8700;48.222;16.342;2023-03-01T18:43:19;8.20;99.90
17170;DHT22;8700;48.222;16.342;2023-03-01T18:46:40;8.10;99.90
17170;DHT22;8700;48.222;16.342;2023-03-01T18:50:06;8.10;99.90
17170;DHT22;8700;48.222;16.342;2023-03-01T18:53:27;8.10;99.90
17170;DHT22;8700;48.222;16.342;2023-03-01T18:56:50;8.10;99.90
17170;DHT22;8700;48.222;16.342;2023-03-01T19:00:12;8.10;99.90
17170;DHT22;8700;48.222;16.342;2023-03-01T19:03:34;7.90;99.90
17170;DHT22;8700;48.222;16.342;2023-03-01T19:06:56;7.70;99.90
17170;DHT22;8700;48.222;16.342;2023-03-01T19:10:21;7.60;99.90
17170;DHT22;8700;48.222;16.342;2023-03-01T19:13:45;7.50;99.90
17170;DHT22;8700;48.222;16.342;2023-03-01T19:17:06;7.30;99.90
17170;DHT22;8700;48.222;16.342;2023-03-01T19:20:27;7.30;99.90
17170;DHT22;8700;48.222;16.342;2023-03-01T19:23:49;7.40;99.90
17170;DHT22;8700;48.222;16.342;2023-03-01T19:27:10;7.30;99.90
17170;DHT22;8700;48.222;16.342;2023-03-01T19:30:32;7.30;99.90
17170;DHT22;8700;48.222;16.342;2023-03-01T19:33:54;7.40;99.90
17170;DHT22;8700;48.222;16.342;2023-03-01T19:37:17;7.40;99.90
17170;DHT22;8700;48.222;16.342;2023-03-01T19:40:38;7.20;99.90
17170;DHT22;8700;48.222;16.342;2023-03-01T19:44:00;7.00;99.90
17170;DHT22;8700;48.222;16.342;2023-03-01T19:47:25;7.00;99.90
17170;DHT22;8700;48.222;16.342;2023-03-01T19:50:47;7.10;99.90
17170;DHT22;8700;48.222;16.342;2023-03-01T19:54:10;7.00;99.90
17170;DHT22;8700;48.222;16.342;2023-03-01T19:57:33;7.00;99.90
17170;DHT22;8700;48.222;16.342;2023-03-01T20:00:55;7.10;99.90
17170;DHT22;8700;48.222;16.342;2023-03-01T20:04:19;7.10;99.90
17170;DHT22;8700;48.222;16.342;2023-03-01T20:07:40;7.10;99.90
17170;DHT22;8700;48.222;16.342;2023-03-01T20:11:02;7.10;99.90
17170;DHT22;8700;48.222;16.342;2023-03-01T20:14:23;7.10;99.90
17170;DHT22;8700;48.222;16.342;2023-03-01T20:17:45;7.00;99.90
17170;DHT22;8700;48.222;16.342;2023-03-01T20:21:07;7.00;99.90
17170;DHT22;8700;48.222;16.342;2023-03-01T20:24:29;7.10;99.90
17170;DHT22;8700;48.222;16.342;2023-03-01T20:27:51;7.20;99.90
17170;DHT22;8700;48.222;16.342;2023-03-01T20:31:14;7.20;99.90
17170;DHT22;8700;48.222;16.342;2023-03-01T20:34:35;7.10;99.90
17170;DHT22;8700;48.222;16.342;2023-03-01T20:37:58;7.10;99.90
17170;DHT22;8700;48.222;16.342;2023-03-01T20:41:20;7.10;99.90
17170;DHT22;8700;48.222;16.342;2023-03-01T20:44:45;7.00;99.90
17170;DHT22;8700;48.222;16.342;2023-03-01T20:48:06;7.00;99.90
17170;DHT22;8700;48.222;16.342;2023-03-01T20:51:27;7.10;99.90
17170;DHT22;8700;48.222;16.342;2023-03-01T20:54:50;7.00;99.90
17170;DHT22;8700;48.222;16.342;2023-03-01T20:58:11;6.80;99.90
17170;DHT22;8700;48.222;16.342;2023-03-01T21:01:33;6.70;99.90
17170;DHT22;8700;48.222;16.342;2023-03-01T21:04:54;6.80;99.90
17170;DHT22;8700;48.222;16.342;2023-03-01T21:08:15;6.90;99.90
17170;DHT22;8700;48.222;16.342;2023-03-01T21:11:38;6.90;99.90
17170;DHT22;8700;48.222;16.342;2023-03-01T21:14:59;6.90;99.90
17170;DHT22;8700;48.222;16.342;2023-03-01T21:18:21;6.90;99.90
17170;DHT22;8700;48.222;16.342;2023-03-01T21:21:46;6.90;99.90
17170;DHT22;8700;48.222;16.342;2023-03-01T21:25:08;6.90;99.90
17170;DHT22;8700;48.222;16.342;2023-03-01T21:28:31;6.90;99.90
17170;DHT22;8700;48.222;16.342;2023-03-01T21:31:52;6.90;99.90
17170;DHT22;8700;48.222;16.342;2023-03-01T21:35:14;7.00;99.90
17170;DHT22;8700;48.222;16.342;2023-03-01T21:38:38;6.90;99.90
17170;DHT22;8700;48.222;16.342;2023-03-01T21:42:01;7.00;99.90
17170;DHT22;8700;48.222;16.342;2023-03-01T21:45:24;7.10;99.90
17170;DHT22;8700;48.222;16.342;2023-03-01T21:48:47;7.10;99.90
17170;DHT22;8700;48.222;16.342;2023-03-01T21:52:08;7.00;99.90
17170;DHT22;8700;48.222;16.342;2023-03-01T21:55:35;7.10;99.90
17170;DHT22;8700;48.222;16.342;2023-03-01T21:58:57;7.10;99.90
17170;DHT22;8700;48.222;16.342;2023-03-01T22:02:19;7.00;99.90
17170;DHT22;8700;48.222;16.342;2023-03-01T22:05:41;7.00;99.90